Estación de Calama Rural INIA

Ultimos registro cada 15 minutos 69
Estación Fecha / Hora Temperatura Humedad Lluvia Velocidad Dirección Radiación Presion
69 Calama Rural INIA 06-09-2026 17:00 26,1 8,3 0 0,1 305 259,8 778,4
68 Calama Rural INIA 06-09-2026 16:45 25,6 7,8 0 0,6 246 306,4 778,4
67 Calama Rural INIA 06-09-2026 16:30 25,7 9,5 0 1 244 353,1 778,4
66 Calama Rural INIA 06-09-2026 16:15 26,7 8,6 0 0,3 260 397,8 778,2
65 Calama Rural INIA 06-09-2026 16:00 27,2 7,7 0 0,5 252 441,1 778,2
64 Calama Rural INIA 06-09-2026 15:45 27,3 9,2 0 0,5 251 481,4 778,4
63 Calama Rural INIA 06-09-2026 15:30 28,1 7,7 0 0,3 273 521,7 778,3
62 Calama Rural INIA 06-09-2026 15:15 27,7 6,7 0 0,6 257 557 778,3
61 Calama Rural INIA 06-09-2026 15:00 26,9 9 0 1,1 242 591,2 778,4
60 Calama Rural INIA 06-09-2026 14:45 27,8 7,7 0 0,6 248 621,9 778,5
59 Calama Rural INIA 06-09-2026 14:30 28,3 9,6 0 0,6 267 647,8 778,6
58 Calama Rural INIA 06-09-2026 14:15 27,4 8,3 0 0,5 247 671,2 778,9
57 Calama Rural INIA 06-09-2026 14:00 25 9,6 0 2,4 246 689,2 779
56 Calama Rural INIA 06-09-2026 13:45 25,7 12,6 0 2,5 240 705,9 779,2
55 Calama Rural INIA 06-09-2026 13:30 24,7 10,3 0 3,2 244 719 779,2
54 Calama Rural INIA 06-09-2026 13:15 24,6 11,7 0 3,3 238 730,4 779,3
53 Calama Rural INIA 06-09-2026 13:00 24,5 12 0 3,8 238 737,9 779,4
52 Calama Rural INIA 06-09-2026 12:45 24,4 12,2 0 3 242 742,6 779,6
51 Calama Rural INIA 06-09-2026 12:30 24,2 9,9 0 3,4 238 742,1 779,8
50 Calama Rural INIA 06-09-2026 12:15 23,9 11 0 3 237 738,4 780
49 Calama Rural INIA 06-09-2026 12:00 24,1 13,4 0 2,6 246 724,5 780,1
48 Calama Rural INIA 06-09-2026 11:45 24,8 11,3 0 1,6 248 698,3 780,4
47 Calama Rural INIA 06-09-2026 11:30 24,6 13,4 0 0,8 245 704 780,5
46 Calama Rural INIA 06-09-2026 11:15 23,2 10,5 0 0,8 236 684,3 780,5
45 Calama Rural INIA 06-09-2026 11:00 23,1 12,8 0 0,2 212 667,7 780,4
44 Calama Rural INIA 06-09-2026 10:45 23 10,8 0 0 0 644,1 780,7
43 Calama Rural INIA 06-09-2026 10:30 22 10,3 0 0 0 591,3 780,6
42 Calama Rural INIA 06-09-2026 10:15 21,7 13,1 0 0 62 569,2 780,8
41 Calama Rural INIA 06-09-2026 10:00 20,2 11,8 0 0,1 52 549,8 780,7
40 Calama Rural INIA 06-09-2026 09:45 18,3 14,5 0 0,8 65 512,7 780,6
39 Calama Rural INIA 06-09-2026 09:30 16,5 16,7 0 2 62 474,4 780,6
38 Calama Rural INIA 06-09-2026 09:15 15,7 15,2 0 2,1 62 434,5 780,6
37 Calama Rural INIA 06-09-2026 09:00 14,2 15,3 0 2,4 56 392 780,6
36 Calama Rural INIA 06-09-2026 08:45 13 19,3 0 3 66 347,4 780,5
35 Calama Rural INIA 06-09-2026 08:30 12,8 19,2 0 2,1 70 301,9 780,3
34 Calama Rural INIA 06-09-2026 08:15 13,2 17,7 0 0,8 58 255,6 780,1
33 Calama Rural INIA 06-09-2026 08:00 11,6 16,6 0 0,9 54 209,3 780
32 Calama Rural INIA 06-09-2026 07:45 10,3 21,8 0 1,4 55 163,4 779,9
31 Calama Rural INIA 06-09-2026 07:30 9,3 22,7 0 1,8 54 119,3 779,8
30 Calama Rural INIA 06-09-2026 07:15 7,1 24,6 0 0,4 42 63,9 779,7
29 Calama Rural INIA 06-09-2026 07:00 6,2 28,8 0 0 0 17,6 779,6
28 Calama Rural INIA 06-09-2026 06:45 6,3 28,5 0 0,1 69 10,7 779,5
27 Calama Rural INIA 06-09-2026 06:30 6,4 31,7 0 0,2 54 8,9 779,3
26 Calama Rural INIA 06-09-2026 06:15 6,7 31,4 0 0,1 61 8,6 779,2
25 Calama Rural INIA 06-09-2026 06:00 6,8 30,5 0 0,2 58 9 779,1
24 Calama Rural INIA 06-09-2026 05:45 7,7 27,5 0 1,2 59 8,4 779,1
23 Calama Rural INIA 06-09-2026 05:30 8 29,4 0 1,4 56 8,7 779
22 Calama Rural INIA 06-09-2026 05:15 7,6 29,5 0 0,2 56 7,9 778,9
21 Calama Rural INIA 06-09-2026 05:00 7,7 30,2 0 0 0 8,1 778,8
20 Calama Rural INIA 06-09-2026 04:45 8,2 29,2 0 0 0 8 778,9
19 Calama Rural INIA 06-09-2026 04:30 8,2 29 0 0,2 44 7,9 778,9
18 Calama Rural INIA 06-09-2026 04:15 7,8 29,3 0 0,3 52 7,8 779,1
17 Calama Rural INIA 06-09-2026 04:00 6,6 30,7 0 0,1 58 8,1 779,1
16 Calama Rural INIA 06-09-2026 03:45 6,6 30,7 0 0 0 8,2 779,2
15 Calama Rural INIA 06-09-2026 03:30 6,6 29,9 0 0 54 7,8 779,3
14 Calama Rural INIA 06-09-2026 03:15 6,7 29,3 0 0 0 7,9 779,3
13 Calama Rural INIA 06-09-2026 03:00 6,8 30,4 0 0 0 7,8 779,2
12 Calama Rural INIA 06-09-2026 02:45 6,7 29 0 0 0 7,8 779,2
11 Calama Rural INIA 06-09-2026 02:30 6,8 30,6 0 0 0 9,7 779,6
10 Calama Rural INIA 06-09-2026 02:15 7,8 28,9 0 0 61 7,9 779,6
9 Calama Rural INIA 06-09-2026 02:00 7,6 26 0 0,8 62 7,9 779,7
8 Calama Rural INIA 06-09-2026 01:45 6,6 28,6 0 0,4 69 7,7 779,8
7 Calama Rural INIA 06-09-2026 01:30 6,9 29,6 0 0,4 82 8 779,9
6 Calama Rural INIA 06-09-2026 01:15 7,3 26,7 0 0 0 7,8 779,9
5 Calama Rural INIA 06-09-2026 01:00 7,8 26,5 0 0 0 7,8 780
4 Calama Rural INIA 06-09-2026 00:45 7,7 28,8 0 0 128 7,8 780,1
3 Calama Rural INIA 06-09-2026 00:30 8,5 29,7 0 0 0 7,9 780,3
2 Calama Rural INIA 06-09-2026 00:15 9,4 26,3 0 0 0 8,2 780,2
1 Calama Rural INIA 06-09-2026 00:00 10,5 24,8 0 0 0 7,7 780,3